Lantrip, Mississippi
Current Conditions -  °F | °C
As of 9:15 PM on Thursday 27 Nov 2014 (Local Time) from KUOX Reporting Station
Clear Clear  
Wind Chill: 28°   Ceiling: Unl
Heat Index: 28°   Visibility: 10mi
Dew Point: 27°   Wind: 3mph
Humidity: 93%   Direction: 70°ENE
Pressure: 30.49"   Gusts: NA
Location:  34.0213°N, 89.3777°W
Report Text: KUOX 280315Z AUTO 07003KT 10SM CLR M02/M03 A3049 RMK AO2 PWINO PNO
Loading
Personal Weather Stations






























Interactive Weather Map New forecast layout! Learn more

10-Day Weather Forecast

Advertisements
Track Severe Weather on mobile